Time;durP1;ratioP1;P1;durP2;ratioP2;P2;SDS_P1;SDS_P2;PMS_P1;PMS_P2;Temp;Humidity;BMP_temperature;BMP_pressure;BME280_temperature;BME280_humidity;BME280_pressure;Samples;Min_cycle;Max_cycle;Signal;HPM_P1;HPM_P2
2022/04/17 00:02:16;;;;;;;9.20;4.83;;;;;;;6.07;46.72;103130.72;4963613;28;99854;-82
2022/04/17 00:04:41;;;;;;;7.53;5.10;;;;;;;6.10;47.08;103119.75;4968293;28;98451;-82
2022/04/17 00:07:06;;;;;;;15.50;5.67;;;;;;;6.12;46.93;103124.81;4968253;28;97425;-81
2022/04/17 00:09:33;;;;;;;22.37;9.30;;;;;;;6.08;46.97;103127.59;4966985;28;97468;-82
2022/04/17 00:12:01;;;;;;;31.10;13.03;;;;;;;6.06;46.89;103110.81;4968473;28;98669;-82
2022/04/17 00:14:27;;;;;;;49.97;20.20;;;;;;;6.03;47.08;103123.31;4974311;28;99597;-83
2022/04/17 00:16:54;;;;;;;37.80;16.77;;;;;;;5.98;46.83;103115.53;4969307;28;96980;-82
2022/04/17 00:19:19;;;;;;;26.20;11.10;;;;;;;5.97;46.97;103100.34;4968164;28;97444;-81
2022/04/17 00:21:45;;;;;;;15.10;7.40;;;;;;;5.94;47.08;103120.25;4977089;28;97557;-82
2022/04/17 00:24:10;;;;;;;9.30;4.77;;;;;;;5.93;47.20;103117.94;4975356;28;97359;-82
2022/04/17 00:26:35;;;;;;;10.97;4.67;;;;;;;5.89;47.22;103117.97;4985259;28;96834;-83
2022/04/17 00:29:01;;;;;;;5.37;4.17;;;;;;;5.89;47.28;103120.69;4985417;28;97102;-82
2022/04/17 00:31:26;;;;;;;4.50;3.40;;;;;;;5.87;47.33;103117.59;4980072;28;96749;-82
2022/04/17 00:33:52;;;;;;;5.00;3.50;;;;;;;5.84;47.24;103098.47;4987423;28;96574;-82
2022/04/17 00:36:17;;;;;;;6.67;4.13;;;;;;;5.72;47.37;103113.31;4982758;28;96655;-83
2022/04/17 00:38:42;;;;;;;6.07;3.50;;;;;;;5.64;47.73;103111.03;4987999;28;96650;-82
2022/04/17 00:41:08;;;;;;;4.60;3.40;;;;;;;5.57;47.64;103111.84;4985054;28;96891;-83
2022/04/17 00:43:44;;;;;;;5.80;3.10;;;;;;;5.53;48.57;103094.69;4994045;28;96834;-83
2022/04/17 00:46:09;;;;;;;5.30;3.03;;;;;;;5.52;47.66;103103.28;4971666;28;96657;-82
2022/04/17 00:48:35;;;;;;;6.40;4.40;;;;;;;5.54;47.67;103095.47;4963705;28;96914;-82
2022/04/17 00:51:00;;;;;;;4.07;3.20;;;;;;;5.58;48.07;103091.56;4970541;28;98403;-82
2022/04/17 00:53:27;;;;;;;4.17;3.47;;;;;;;5.59;47.87;103093.09;4975136;28;97378;-82
2022/04/17 00:55:53;;;;;;;5.70;3.70;;;;;;;5.62;47.96;103099.72;4961346;28;98744;-82
2022/04/17 00:58:19;;;;;;;4.60;3.23;;;;;;;5.62;47.93;103105.19;4960212;28;96786;-82
2022/04/17 01:00:45;;;;;;;7.07;3.83;;;;;;;5.62;48.14;103092.31;4966292;28;99004;-82
2022/04/17 01:03:12;;;;;;;7.37;4.37;;;;;;;5.59;47.76;103090.38;4961391;28;99249;-82
2022/04/17 01:05:42;;;;;;;6.10;3.43;;;;;;;5.47;48.03;103085.38;4972057;28;96815;-82
2022/04/17 01:08:10;;;;;;;7.60;3.70;;;;;;;5.37;47.92;103078.03;4970603;28;98215;-82
2022/04/17 01:10:35;;;;;;;5.97;3.67;;;;;;;5.22;48.14;103093.66;4973794;28;103304;-82
2022/04/17 01:13:03;;;;;;;8.00;3.53;;;;;;;5.15;48.35;103077.34;4969736;28;97374;-82
2022/04/17 01:15:29;;;;;;;4.27;3.37;;;;;;;5.08;48.30;103073.84;4969896;28;96826;-82
2022/04/17 01:17:55;;;;;;;6.03;3.53;;;;;;;5.07;48.66;103077.72;4975038;28;96893;-82
2022/04/17 01:20:22;;;;;;;6.20;3.70;;;;;;;5.09;48.57;103087.06;4970705;28;99642;-83
2022/04/17 01:22:48;;;;;;;7.33;3.73;;;;;;;5.05;48.45;103074.63;4976565;28;98659;-82
2022/04/17 01:27:57;;;;;;;7.50;3.67;;;;;;;4.99;48.49;103076.19;4970498;28;97913;-83
2022/04/17 01:30:23;;;;;;;4.70;3.20;;;;;;;4.96;48.75;103074.25;4969512;28;97668;-82
2022/04/17 01:32:48;;;;;;;11.40;4.17;;;;;;;4.99;48.69;103076.19;4966004;28;97610;-82
2022/04/17 01:35:13;;;;;;;6.53;3.27;;;;;;;5.01;48.43;103068.41;4974069;28;96889;-82
2022/04/17 01:37:39;;;;;;;4.50;3.20;;;;;;;4.97;48.56;103068.41;4968488;28;97125;-83
2022/04/17 01:40:05;;;;;;;4.23;3.00;;;;;;;4.94;48.92;103068.41;4971102;28;98988;-81
2022/04/17 01:42:30;;;;;;;4.27;3.37;;;;;;;4.91;48.85;103066.50;4969722;28;98488;-82
2022/04/17 01:44:56;;;;;;;7.63;3.70;;;;;;;4.88;48.91;103070.78;4979021;28;97233;-82
2022/04/17 01:47:21;;;;;;;5.00;3.27;;;;;;;4.86;48.82;103042.34;4967358;28;97011;-82
2022/04/17 01:49:47;;;;;;;4.40;2.87;;;;;;;4.81;48.98;103050.91;4970354;28;97463;-83
2022/04/17 01:52:12;;;;;;;4.87;3.37;;;;;;;4.74;49.16;103048.97;4974276;28;97043;-82
2022/04/17 01:54:38;;;;;;;6.30;3.03;;;;;;;4.70;49.03;103050.94;4977699;28;96953;-82
2022/04/17 01:57:03;;;;;;;6.10;3.50;;;;;;;4.65;49.21;103061.50;4973127;28;96875;-82
2022/04/17 01:59:29;;;;;;;3.93;2.90;;;;;;;4.66;49.26;103049.41;4975917;28;99554;-82
2022/04/17 02:01:55;;;;;;;4.27;2.83;;;;;;;4.65;49.28;103045.13;4971512;28;97494;-82
2022/04/17 02:04:20;;;;;;;5.03;2.93;;;;;;;4.64;49.38;103040.84;4965670;28;96957;-82
2022/04/17 02:06:47;;;;;;;3.90;2.93;;;;;;;4.65;49.43;103045.91;4971880;28;97278;-82
2022/04/17 02:09:14;;;;;;;6.00;2.97;;;;;;;4.65;49.32;103043.19;4974484;28;100018;-81
2022/04/17 02:11:41;;;;;;;3.50;2.57;;;;;;;4.65;49.40;103050.59;4979814;28;98385;-82
2022/04/17 02:14:08;;;;;;;5.57;2.73;;;;;;;4.66;49.37;103041.22;4967349;28;96948;-83
2022/04/17 02:16:33;;;;;;;4.70;3.30;;;;;;;4.70;49.50;103050.16;4966193;28;97009;-82
2022/04/17 02:19:00;;;;;;;2.77;2.57;;;;;;;4.72;49.49;103031.50;4958243;28;97077;-82
2022/04/17 02:21:26;;;;;;;4.37;3.03;;;;;;;4.73;49.35;103024.84;4971084;28;97071;-82
2022/04/17 02:23:52;;;;;;;4.47;3.03;;;;;;;4.66;49.40;103022.13;4969449;28;96889;-83
2022/04/17 02:26:17;;;;;;;5.37;2.80;;;;;;;4.60;49.54;103031.88;4966953;28;96961;-82
2022/04/17 02:28:43;;;;;;;4.57;3.63;;;;;;;4.59;49.63;103031.09;4975780;28;97752;-82
2022/04/17 02:31:10;;;;;;;5.90;3.13;;;;;;;4.59;49.59;103016.72;4974085;28;96975;-83
2022/04/17 02:33:37;;;;;;;3.67;2.80;;;;;;;4.61;49.84;103022.56;4972273;28;96865;-82
2022/04/17 02:36:04;;;;;;;5.50;3.50;;;;;;;4.66;49.66;103030.31;4982312;28;97186;-82
2022/04/17 02:38:30;;;;;;;4.10;3.10;;;;;;;4.67;49.73;103013.56;4968474;28;99803;-83
2022/04/17 02:40:55;;;;;;;6.10;3.27;;;;;;;4.70;49.44;103018.22;4965234;28;96979;-82
2022/04/17 02:43:21;;;;;;;4.57;3.40;;;;;;;4.72;49.65;103012.41;4969777;28;97129;-82
2022/04/17 02:45:47;;;;;;;5.27;3.50;;;;;;;4.73;49.61;103013.94;4975079;28;96946;-83
2022/04/17 02:48:12;;;;;;;5.37;3.07;;;;;;;4.70;49.66;103036.53;4972287;28;98006;-82
2022/04/17 02:50:39;;;;;;;6.80;3.20;;;;;;;4.70;49.89;103020.94;4970233;28;98695;-82
2022/04/17 02:53:05;;;;;;;6.50;4.17;;;;;;;4.69;49.86;103022.13;4974933;28;96721;-82
2022/04/17 02:55:30;;;;;;;6.37;3.67;;;;;;;4.71;49.41;103010.81;4967532;28;97110;-82
2022/04/17 02:57:56;;;;;;;5.30;3.77;;;;;;;4.67;49.70;103018.25;4972360;28;97344;-82
2022/04/17 03:00:23;;;;;;;4.07;2.90;;;;;;;4.63;49.35;103010.06;4965533;28;97305;-83
2022/04/17 03:05:36;;;;;;;6.30;3.87;;;;;;;4.50;49.94;103006.97;4975049;28;96879;-82
2022/04/17 03:08:09;;;;;;;5.63;3.80;;;;;;;4.49;49.82;103010.09;4968774;28;99806;-82
2022/04/17 03:10:36;;;;;;;11.83;4.87;;;;;;;4.47;49.76;103015.97;4979034;28;99367;-83
2022/04/17 03:13:02;;;;;;;8.37;4.87;;;;;;;4.44;49.97;103002.31;4969637;28;96841;-83
2022/04/17 03:15:27;;;;;;;8.43;4.80;;;;;;;4.42;49.85;103002.72;4966561;28;97117;-82
2022/04/17 03:17:53;;;;;;;9.80;5.43;;;;;;;4.32;49.88;102991.84;4981041;28;98919;-83
2022/04/17 03:20:19;;;;;;;10.67;5.40;;;;;;;4.26;49.97;102999.63;4973379;28;98307;-82
2022/04/17 03:22:44;;;;;;;11.47;5.63;;;;;;;4.25;50.06;102981.72;4961361;28;96893;-82
2022/04/17 03:25:11;;;;;;;10.50;5.40;;;;;;;4.22;50.02;102993.41;4983524;28;97077;-84
2022/04/17 03:27:36;;;;;;;7.23;4.63;;;;;;;4.21;50.18;102980.97;4964824;28;98205;-82
2022/04/17 03:30:03;;;;;;;9.77;4.67;;;;;;;4.18;49.90;102992.63;4971393;28;97648;-82
2022/04/17 03:32:29;;;;;;;10.80;5.37;;;;;;;4.14;50.23;102972.78;4969411;28;97159;-82
2022/04/17 03:34:55;;;;;;;11.80;5.13;;;;;;;4.11;49.92;102970.06;4974488;28;96898;-82
2022/04/17 03:37:20;;;;;;;7.13;4.40;;;;;;;4.07;50.00;102961.91;4967508;28;96598;-82
2022/04/17 03:39:48;;;;;;;6.17;4.10;;;;;;;3.94;50.24;102971.63;4974757;28;97134;-81
2022/04/17 03:42:14;;;;;;;7.17;3.60;;;;;;;3.90;50.24;102970.06;4977548;28;96932;-82
2022/04/17 03:44:40;;;;;;;6.13;4.07;;;;;;;3.80;50.55;102977.06;4974507;28;97116;-82
2022/04/17 03:47:06;;;;;;;5.50;3.60;;;;;;;3.77;50.60;102970.47;4961461;28;96963;-83
2022/04/17 03:49:32;;;;;;;6.13;3.37;;;;;;;3.68;50.75;102963.84;4969916;28;97595;-83
2022/04/17 03:51:57;;;;;;;7.20;4.20;;;;;;;3.58;51.20;102965.38;4970397;28;96987;-83
2022/04/17 03:54:23;;;;;;;7.13;4.63;;;;;;;3.49;51.12;102972.38;4967229;28;97163;-83
2022/04/17 03:56:48;;;;;;;8.30;4.80;;;;;;;3.43;50.94;102965.78;4966550;28;97918;-82
2022/04/17 03:59:14;;;;;;;8.13;4.50;;;;;;;3.46;51.19;102965.00;4971614;28;98483;-82
2022/04/17 04:01:40;;;;;;;6.80;4.20;;;;;;;3.52;50.66;102977.03;4981551;28;97107;-82
2022/04/17 04:04:09;;;;;;;8.80;4.63;;;;;;;3.56;50.75;102962.28;4978965;28;97114;-82
2022/04/17 04:06:34;;;;;;;9.17;3.80;;;;;;;3.56;50.75;102950.63;4974330;28;99193;-82
2022/04/17 04:09:00;;;;;;;7.63;3.80;;;;;;;3.54;50.71;102958.38;4965004;28;97740;-82
2022/04/17 04:11:26;;;;;;;8.07;4.90;;;;;;;3.53;50.82;102945.97;4955175;28;96948;-83
2022/04/17 04:13:52;;;;;;;7.90;4.13;;;;;;;3.49;50.76;102956.06;4987087;28;97369;-82
2022/04/17 04:16:18;;;;;;;11.03;4.70;;;;;;;3.47;51.08;102961.13;4969370;28;102094;-82
2022/04/17 04:18:43;;;;;;;7.40;4.53;;;;;;;3.48;50.85;102958.00;4967820;28;97266;-82
2022/04/17 04:21:08;;;;;;;8.00;4.67;;;;;;;3.52;51.18;102972.38;4967491;28;96814;-82
2022/04/17 04:23:35;;;;;;;11.33;4.83;;;;;;;3.57;50.81;102961.13;4994514;28;97396;-83
2022/04/17 04:26:02;;;;;;;12.87;5.00;;;;;;;3.59;50.98;102964.22;4973571;28;97097;-83
2022/04/17 04:28:33;;;;;;;6.03;3.77;;;;;;;3.59;50.66;102955.28;4968937;28;96977;-82
2022/04/17 04:31:19;;;;;;;11.30;4.93;;;;;;;3.55;52.12;102963.47;4941778;28;96833;-83
2022/04/17 04:33:45;;;;;;;8.90;4.93;;;;;;;3.50;50.75;102963.03;4941850;28;97672;-83
2022/04/17 04:36:11;;;;;;;5.27;3.73;;;;;;;3.56;50.85;102947.91;4945205;28;99732;-83
2022/04/17 04:38:37;;;;;;;8.80;5.13;;;;;;;3.58;50.74;102951.03;4971283;28;104106;-83
2022/04/17 04:41:02;;;;;;;5.43;3.67;;;;;;;3.59;50.82;102952.56;4970010;28;96814;-83
2022/04/17 04:43:28;;;;;;;7.37;4.53;;;;;;;3.56;50.73;102975.13;4960397;28;97099;-82
2022/04/17 04:46:06;;;;;;;10.80;5.10;;;;;;;3.53;50.86;102959.56;4964393;28;98351;-83
2022/04/17 04:51:26;;;;;;;5.70;3.90;;;;;;;3.41;50.89;102962.63;4975423;28;97577;-83
2022/04/17 04:53:53;;;;;;;10.70;5.07;;;;;;;3.39;51.17;102962.25;4966020;28;96711;-82
2022/04/17 04:56:19;;;;;;;7.20;3.90;;;;;;;3.42;50.97;102973.16;4966929;28;97662;-83
2022/04/17 04:58:45;;;;;;;8.17;4.57;;;;;;;3.45;51.12;102968.88;4973403;28;99843;-83
2022/04/17 05:01:12;;;;;;;8.53;4.67;;;;;;;3.48;51.04;102970.81;4970367;28;97304;-83
2022/04/17 05:03:38;;;;;;;5.70;3.93;;;;;;;3.50;51.10;102955.66;4963778;28;96992;-83
2022/04/17 05:06:03;;;;;;;6.97;4.63;;;;;;;3.45;51.40;102963.44;4966397;28;98025;-83
2022/04/17 05:08:29;;;;;;;7.00;4.50;;;;;;;3.32;51.06;102965.72;4966577;28;98560;-83
2022/04/17 05:10:54;;;;;;;9.33;4.67;;;;;;;3.27;51.55;102973.50;4968583;28;96758;-83
2022/04/17 05:13:20;;;;;;;8.13;4.37;;;;;;;3.24;51.47;102980.50;4965235;28;96741;-83
2022/04/17 05:15:46;;;;;;;7.80;4.80;;;;;;;3.26;51.73;102963.78;4974767;28;96912;-84
2022/04/17 05:18:11;;;;;;;8.87;4.50;;;;;;;3.29;51.58;102982.84;4971635;28;102625;-83
2022/04/17 05:20:37;;;;;;;6.87;4.57;;;;;;;3.27;51.49;102973.50;4975265;28;96933;-83
2022/04/17 05:23:17;;;;;;;6.40;4.23;;;;;;;3.31;52.23;102968.84;4978651;28;96978;-83
2022/04/17 05:25:47;;;;;;;7.70;4.10;;;;;;;3.31;51.92;102990.63;4976728;28;97133;-82
2022/04/17 05:28:14;;;;;;;6.17;3.53;;;;;;;3.33;51.59;102963.81;4978379;28;97686;-83
2022/04/17 05:30:39;;;;;;;4.57;4.10;;;;;;;3.37;51.52;102970.81;4968717;28;96836;-83
2022/04/17 05:33:05;;;;;;;8.70;4.20;;;;;;;3.39;51.80;102973.13;4967659;28;97137;-83
2022/04/17 05:35:31;;;;;;;9.27;4.47;;;;;;;3.45;51.76;102985.97;4951910;28;99524;-83
2022/04/17 05:37:56;;;;;;;7.13;3.97;;;;;;;3.49;51.81;102962.28;4963767;28;100461;-83
2022/04/17 05:40:22;;;;;;;4.40;3.43;;;;;;;3.63;51.66;102964.22;4963654;28;96824;-83
2022/04/17 05:42:47;;;;;;;6.20;3.80;;;;;;;3.76;51.68;102962.69;4974397;28;96844;-83
2022/04/17 05:45:13;;;;;;;4.03;3.13;;;;;;;3.89;51.59;102982.91;4969694;28;100672;-84
2022/04/17 05:47:38;;;;;;;6.20;4.27;;;;;;;3.96;51.56;102988.34;4972148;28;97900;-83
2022/04/17 05:50:05;;;;;;;6.40;3.80;;;;;;;4.05;51.72;102972.41;4972915;28;96707;-83
2022/04/17 05:52:30;;;;;;;6.20;4.10;;;;;;;4.16;51.47;102973.19;4969082;28;96929;-83
2022/04/17 05:54:57;;;;;;;5.70;3.47;;;;;;;4.23;51.47;102969.66;4979505;28;98760;-84
2022/04/17 05:57:23;;;;;;;9.50;3.50;;;;;;;4.27;51.59;102968.50;4967535;28;98640;-83
2022/04/17 05:59:48;;;;;;;4.43;3.33;;;;;;;4.35;52.04;102983.66;4971250;28;97231;-83
2022/04/17 06:02:15;;;;;;;6.40;3.80;;;;;;;4.40;51.54;102968.84;4967735;28;98177;-82
2022/04/17 06:04:41;;;;;;;5.27;3.60;;;;;;;4.51;51.54;102984.00;4967786;28;96777;-83
2022/04/17 06:07:07;;;;;;;4.10;3.70;;;;;;;4.58;51.66;102975.03;4972566;28;97464;-83
2022/04/17 06:09:32;;;;;;;9.60;3.67;;;;;;;4.67;51.57;102982.81;4965750;28;96829;-84
2022/04/17 06:11:58;;;;;;;8.47;3.90;;;;;;;4.68;51.62;103003.44;4964497;28;96887;-83
2022/04/17 06:14:23;;;;;;;8.10;4.23;;;;;;;4.72;51.97;102974.22;4976999;28;98040;-83
2022/04/17 06:16:49;;;;;;;6.90;3.33;;;;;;;4.85;51.81;102984.28;4968642;28;100002;-82
2022/04/17 06:19:14;;;;;;;9.60;4.00;;;;;;;4.90;51.88;102985.81;4973730;28;97025;-83
2022/04/17 06:21:40;;;;;;;6.80;3.60;;;;;;;5.00;51.60;102991.22;4966782;28;96745;-82
2022/04/17 06:24:06;;;;;;;12.00;3.77;;;;;;;5.07;51.71;102976.78;4968793;28;96817;-82
2022/04/17 06:26:33;;;;;;;6.40;3.90;;;;;;;5.15;51.89;102995.47;4976388;28;99851;-82
2022/04/17 06:29:03;;;;;;;6.13;3.93;;;;;;;5.24;51.71;103000.50;4977939;28;96925;-82
2022/04/17 06:31:29;;;;;;;5.20;3.63;;;;;;;5.38;51.85;102997.66;4972013;28;97236;-83
2022/04/17 06:33:55;;;;;;;6.23;4.37;;;;;;;5.49;51.97;102975.75;4972136;28;98735;-82
2022/04/17 06:36:20;;;;;;;5.70;3.73;;;;;;;5.60;51.80;102979.19;4968794;28;96386;-83
2022/04/17 06:38:46;;;;;;;4.63;3.50;;;;;;;5.69;51.67;102965.88;4973869;28;96888;-81
2022/04/17 06:41:11;;;;;;;8.60;3.53;;;;;;;5.75;51.87;102967.00;4968663;28;96832;-84
2022/04/17 06:43:37;;;;;;;4.03;2.97;;;;;;;5.89;51.85;102975.91;4960889;28;100162;-83
2022/04/17 06:46:02;;;;;;;5.10;2.63;;;;;;;6.06;51.55;102968.72;4967678;28;97436;-83
2022/04/17 06:48:28;;;;;;;9.43;3.60;;;;;;;6.19;51.40;102964.28;4970864;28;96958;-81
2022/04/17 06:50:54;;;;;;;4.33;2.83;;;;;;;6.35;51.52;102980.94;4974141;28;96851;-82
2022/04/17 06:53:20;;;;;;;5.90;2.70;;;;;;;6.50;51.38;102973.34;4969568;28;97033;-82
2022/04/17 06:55:47;;;;;;;5.90;3.63;;;;;;;6.66;50.83;102968.09;4973372;28;97851;-82
2022/04/17 06:58:14;;;;;;;6.13;3.27;;;;;;;6.68;51.16;102977.44;4968734;28;97031;-82
2022/04/17 07:00:39;;;;;;;4.90;3.13;;;;;;;6.87;50.91;102984.25;4967629;28;97210;-81
2022/04/17 07:03:06;;;;;;;3.80;2.40;;;;;;;7.00;50.86;102963.38;4973423;28;97579;-82
2022/04/17 07:05:31;;;;;;;4.17;2.67;;;;;;;7.17;50.40;102954.13;4968902;28;97969;-82
2022/04/17 07:08:02;;;;;;;5.40;3.20;;;;;;;7.34;50.47;102960.53;4976892;28;96659;-81
2022/04/17 07:10:29;;;;;;;5.13;2.87;;;;;;;7.46;50.37;102951.78;4982449;28;97486;-82
2022/04/17 07:12:55;;;;;;;4.77;3.07;;;;;;;7.60;50.05;102965.22;4976324;28;99628;-81
2022/04/17 07:15:23;;;;;;;4.70;2.60;;;;;;;7.78;49.87;102960.25;4975024;28;97658;-82
2022/04/17 07:17:49;;;;;;;4.73;2.70;;;;;;;7.95;50.03;102950.97;4973503;28;97139;-81
2022/04/17 07:20:15;;;;;;;3.97;2.47;;;;;;;8.12;49.69;102952.63;4971793;28;97033;-81
2022/04/17 07:22:42;;;;;;;4.73;2.27;;;;;;;8.34;49.78;102950.31;4968148;28;97197;-81
2022/04/17 07:25:09;;;;;;;3.10;2.67;;;;;;;8.55;49.69;102951.84;4966075;28;97022;-82
2022/04/17 07:27:36;;;;;;;3.43;2.30;;;;;;;8.70;49.17;102959.38;4974775;28;97466;-82
2022/04/17 07:30:13;;;;;;;2.73;2.33;;;;;;;8.88;49.08;102957.06;4968654;28;96711;-82
2022/04/17 07:32:40;;;;;;;3.50;1.90;;;;;;;9.10;48.72;102949.13;4971880;28;100693;-82
2022/04/17 07:35:07;;;;;;;3.10;2.20;;;;;;;9.26;48.10;102956.63;4967192;28;98636;-81
2022/04/17 07:37:35;;;;;;;5.00;2.17;;;;;;;9.45;48.36;102955.78;4973080;28;96720;-81
2022/04/17 07:40:01;;;;;;;2.60;2.40;;;;;;;9.64;48.11;102960.44;4968965;28;96823;-81
2022/04/17 07:42:28;;;;;;;3.97;2.10;;;;;;;9.84;47.75;102947.38;4965570;28;99251;-84
2022/04/17 07:44:53;;;;;;;3.50;1.90;;;;;;;9.98;47.38;102941.50;4983690;28;98432;-83
2022/04/17 07:47:19;;;;;;;2.60;2.40;;;;;;;10.10;47.20;102949.06;4974010;28;96729;-83
2022/04/17 07:49:45;;;;;;;5.97;2.70;;;;;;;10.30;46.98;102943.44;4979577;28;96842;-81
2022/04/17 07:52:10;;;;;;;3.20;2.30;;;;;;;10.50;46.89;102953.13;4967995;28;98991;-81
2022/04/17 07:54:36;;;;;;;2.60;1.70;;;;;;;10.74;46.71;102955.59;4975779;28;96780;-82
2022/04/17 07:57:01;;;;;;;2.17;1.90;;;;;;;10.89;46.68;102937.44;4975891;28;97041;-81
2022/04/17 07:59:27;;;;;;;1.30;1.20;;;;;;;11.12;46.36;102946.16;4972317;28;97160;-81
2022/04/17 08:02:01;;;;;;;2.43;2.20;;;;;;;11.31;46.01;102947.19;4972551;28;96856;-82
2022/04/17 08:04:27;;;;;;;2.27;1.50;;;;;;;11.49;46.24;102944.59;4964225;28;99717;-80
2022/04/17 08:06:53;;;;;;;7.30;1.40;;;;;;;11.67;45.91;102938.56;4974617;28;97883;-81
2022/04/17 08:09:18;;;;;;;1.20;0.87;;;;;;;11.81;45.31;102936.13;4968988;28;96731;-82
2022/04/17 08:11:51;;;;;;;1.50;1.40;;;;;;;11.98;45.18;102933.97;4973335;28;98721;-81
2022/04/17 08:14:19;;;;;;;0.80;0.80;;;;;;;12.19;45.03;102935.22;4958984;28;100272;-83
2022/04/17 08:16:44;;;;;;;0.90;0.90;;;;;;;12.32;44.38;102944.22;4946533;28;97136;-82
2022/04/17 08:19:10;;;;;;;1.20;0.90;;;;;;;12.41;43.85;102933.22;4941990;28;97041;-82
2022/04/17 08:21:35;;;;;;;2.23;1.30;;;;;;;12.53;43.77;102954.50;4947639;28;97462;-82
2022/04/17 08:24:02;;;;;;;0.97;0.90;;;;;;;12.72;43.39;102926.53;4954408;28;96815;-85
2022/04/17 08:26:27;;;;;;;1.73;1.37;;;;;;;12.78;43.03;102935.00;4967596;28;96963;-82
2022/04/17 08:28:52;;;;;;;1.20;1.03;;;;;;;12.91;42.86;102921.88;4972009;28;96909;-84
2022/04/17 08:31:18;;;;;;;0.80;0.70;;;;;;;13.08;42.80;102941.78;4967260;28;97763;-82
2022/04/17 08:33:43;;;;;;;1.90;1.33;;;;;;;13.24;42.39;102922.97;4971883;28;97658;-82
2022/04/17 08:36:09;;;;;;;1.10;1.00;;;;;;;13.42;42.08;102934.09;4972238;28;97263;-81
2022/04/17 08:38:34;;;;;;;3.73;0.87;;;;;;;13.60;41.68;102921.53;4980256;28;96734;-81
2022/04/17 08:41:02;;;;;;;0.90;0.90;;;;;;;13.79;41.35;102917.56;4972276;28;97313;-81
2022/04/17 08:43:28;;;;;;;3.03;1.20;;;;;;;13.94;40.54;102915.72;4969329;28;96964;-81
2022/04/17 08:45:54;;;;;;;1.00;1.00;;;;;;;14.08;40.87;102928.97;4971778;28;96883;-81
2022/04/17 08:48:21;;;;;;;0.90;0.90;;;;;;;14.30;40.54;102903.91;4968309;28;97017;-82
2022/04/17 08:50:50;;;;;;;1.13;0.93;;;;;;;14.51;39.92;102905.72;4970926;28;100722;-80
2022/04/17 08:53:17;;;;;;;1.00;0.80;;;;;;;14.69;40.47;102903.69;4963456;28;97526;-79
2022/04/17 08:55:44;;;;;;;1.00;0.80;;;;;;;14.92;40.10;102905.75;4968320;28;97120;-80
2022/04/17 08:58:11;;;;;;;1.00;0.70;;;;;;;15.13;39.69;102897.66;4969328;28;96900;-81
2022/04/17 09:00:36;;;;;;;1.07;0.97;;;;;;;15.24;39.29;102904.25;4975269;28;99413;-81
2022/04/17 09:03:01;;;;;;;2.57;1.10;;;;;;;15.34;39.37;102891.84;4967442;28;99800;-80
2022/04/17 09:05:27;;;;;;;0.97;0.93;;;;;;;15.44;39.16;102900.91;4971121;28;96830;-80
2022/04/17 09:07:56;;;;;;;1.20;1.07;;;;;;;15.56;38.81;102895.13;4972711;28;96781;-81
2022/04/17 09:10:25;;;;;;;1.73;0.73;;;;;;;15.77;38.13;102885.72;4972589;28;98164;-81
2022/04/17 09:12:53;;;;;;;1.20;1.10;;;;;;;15.94;36.77;102888.84;4973834;28;97046;-82
2022/04/17 09:15:22;;;;;;;2.53;1.60;;;;;;;15.96;36.02;102885.59;4974357;28;97482;-83
2022/04/17 09:17:48;;;;;;;1.20;1.10;;;;;;;16.02;37.70;102887.22;4989825;28;96907;-80
2022/04/17 09:20:22;;;;;;;0.70;0.70;;;;;;;16.24;36.68;102878.53;4974357;28;97872;-80
2022/04/17 09:22:50;;;;;;;0.80;0.80;;;;;;;16.45;37.11;102880.16;4965522;28;101092;-80
2022/04/17 09:25:16;;;;;;;1.10;0.80;;;;;;;16.56;36.75;102874.06;4955243;28;96997;-81
2022/04/17 09:28:06;;;;;;;1.13;0.73;;;;;;;16.78;33.66;102871.63;4943903;28;96961;-82
2022/04/17 09:30:40;;;;;;;0.87;0.87;;;;;;;16.88;36.50;102867.50;4950279;28;102388;-82
2022/04/17 09:33:10;;;;;;;1.50;1.30;;;;;;;16.98;35.45;102886.38;4972807;28;96832;-81
2022/04/17 09:35:36;;;;;;;3.33;1.20;;;;;;;17.05;35.67;102866.50;4966402;28;97502;-84
2022/04/17 09:38:09;;;;;;;1.60;1.00;;;;;;;17.10;33.28;102870.63;4972031;28;96626;-84
2022/04/17 09:40:37;;;;;;;1.13;0.90;;;;;;;17.06;36.02;102867.25;4970243;28;102254;-82
2022/04/17 09:43:16;;;;;;;1.47;1.10;;;;;;;17.15;32.42;102858.78;4964637;28;102121;-83
2022/04/17 09:46:04;;;;;;;0.80;0.80;;;;;;;17.10;33.03;102853.94;4970432;28;98565;-82
2022/04/17 09:48:35;;;;;;;1.10;0.77;;;;;;;17.15;34.77;102847.66;4967461;28;96835;-80
2022/04/17 09:51:18;;;;;;;1.73;1.20;;;;;;;17.24;35.67;102844.75;4968603;28;96883;-80
2022/04/17 09:54:14;;;;;;;0.83;0.83;;;;;;;17.29;33.53;102832.94;4967821;28;100373;-81
2022/04/17 09:56:41;;;;;;;0.70;0.70;;;;;;;17.36;35.54;102826.97;4952458;28;97696;-83
2022/04/17 09:59:21;;;;;;;1.80;0.90;;;;;;;17.38;31.20;102829.25;4967988;28;96759;-81
2022/04/17 10:01:52;;;;;;;0.90;0.90;;;;;;;17.31;33.34;102821.31;4977930;28;97667;-80
2022/04/17 10:04:22;;;;;;;0.97;0.77;;;;;;;17.31;35.08;102808.19;4967064;28;96932;-81
2022/04/17 10:06:52;;;;;;;1.60;1.00;;;;;;;17.32;34.19;102812.47;4976064;28;96867;-79
2022/04/17 10:09:18;;;;;;;0.70;0.57;;;;;;;17.42;34.40;102811.09;4976071;28;96591;-80
2022/04/17 10:11:45;;;;;;;0.60;0.60;;;;;;;17.53;34.70;102808.47;4974547;28;97546;-80
2022/04/17 10:14:10;;;;;;;0.90;0.70;;;;;;;17.59;34.31;102797.41;4975314;28;96879;-82
2022/04/17 10:16:41;;;;;;;0.70;0.70;;;;;;;17.58;32.73;102799.41;4963333;28;97208;-80
2022/04/17 10:19:11;;;;;;;0.80;0.80;;;;;;;17.60;32.68;102796.16;4993482;28;96990;-81
2022/04/17 10:21:39;;;;;;;1.10;1.03;;;;;;;17.51;33.08;102787.94;4975329;28;101387;-82
2022/04/17 10:24:06;;;;;;;0.80;0.80;;;;;;;17.50;33.50;102783.59;4974256;28;98814;-80
2022/04/17 10:26:43;;;;;;;0.80;0.80;;;;;;;17.59;32.26;102789.81;4968314;28;96664;-80
2022/04/17 10:29:15;;;;;;;1.70;1.13;;;;;;;17.70;32.95;102778.81;4942482;28;96639;-81
2022/04/17 10:31:58;;;;;;;1.53;0.90;;;;;;;17.76;31.79;102779.63;4949240;28;100041;-80
2022/04/17 10:34:53;;;;;;;0.67;0.67;;;;;;;17.85;33.48;102773.13;4947872;28;102692;-82
2022/04/17 10:37:40;;;;;;;0.63;0.63;;;;;;;17.95;30.82;102764.09;4948049;28;100161;-80
2022/04/17 10:40:10;;;;;;;1.10;0.80;;;;;;;18.12;32.35;102761.47;4971169;28;96659;-80
2022/04/17 10:42:53;;;;;;;1.33;0.70;;;;;;;18.33;33.09;102764.91;4968975;28;97731;-80
2022/04/17 10:45:18;;;;;;;1.57;0.87;;;;;;;18.47;32.59;102761.25;4974320;28;99367;-81
2022/04/17 10:48:05;;;;;;;0.60;0.50;;;;;;;18.56;26.97;102747.91;4964583;28;96877;-81
2022/04/17 10:50:44;;;;;;;0.60;0.60;;;;;;;18.60;28.56;102756.03;4970226;28;98423;-81
2022/04/17 10:53:26;;;;;;;1.57;0.90;;;;;;;18.73;29.66;102747.22;4961088;28;102008;-82
2022/04/17 10:56:01;;;;;;;0.93;0.60;;;;;;;18.81;29.55;102746.25;4969162;28;101426;-81
2022/04/17 10:58:45;;;;;;;1.00;0.57;;;;;;;19.05;29.07;102740.25;4968221;28;97224;-81
2022/04/17 11:01:12;;;;;;;0.60;0.53;;;;;;;19.27;30.80;102735.53;4969353;28;96909;-80
2022/04/17 11:03:39;;;;;;;1.53;0.70;;;;;;;19.44;30.12;102743.97;4973500;28;97123;-80
2022/04/17 11:06:30;;;;;;;0.60;0.50;;;;;;;19.58;27.21;102734.63;4981067;28;96798;-79
2022/04/17 11:09:12;;;;;;;1.17;0.60;;;;;;;19.79;28.88;102729.59;4977933;28;96798;-81
2022/04/17 11:11:45;;;;;;;1.00;0.90;;;;;;;20.05;28.57;102730.09;4970731;28;96727;-81
2022/04/17 11:14:13;;;;;;;0.77;0.60;;;;;;;20.17;29.38;102720.44;4980985;28;100274;-80
2022/04/17 11:16:58;;;;;;;1.03;0.60;;;;;;;20.22;27.01;102728.09;4969517;28;97129;-82
2022/04/17 11:19:35;;;;;;;0.80;0.60;;;;;;;20.44;27.79;102725.25;4973149;28;96898;-79
2022/04/17 11:22:08;;;;;;;1.33;0.80;;;;;;;20.61;29.55;102725.22;4962178;28;97114;-79
2022/04/17 11:24:57;;;;;;;0.87;0.63;;;;;;;20.92;27.32;102714.41;4956851;28;101830;-81
2022/04/17 11:27:41;;;;;;;2.17;0.73;;;;;;;21.14;26.43;102716.41;4953282;28;101385;-81
2022/04/17 11:30:26;;;;;;;2.33;0.73;;;;;;;21.26;26.35;102703.09;4969846;28;98471;-79
2022/04/17 11:32:52;;;;;;;1.70;0.70;;;;;;;21.37;28.60;102706.59;4949486;28;97658;-80
2022/04/17 11:35:20;;;;;;;0.90;0.60;;;;;;;21.49;28.09;102702.41;4956971;28;97813;-80
2022/04/17 11:38:06;;;;;;;0.60;0.50;;;;;;;21.62;25.35;102690.63;4956111;28;96925;-81
2022/04/17 11:40:44;;;;;;;1.50;0.73;;;;;;;21.44;25.76;102694.06;4954712;28;98040;-80
2022/04/17 11:43:12;;;;;;;0.90;0.60;;;;;;;21.58;28.01;102693.69;4940639;28;97861;-80